Time;durP1;ratioP1;P1;durP2;ratioP2;P2;SDS_P1;SDS_P2;PMS_P1;PMS_P2;Temp;Humidity;BMP_temperature;BMP_pressure;BME280_temperature;BME280_humidity;BME280_pressure;Samples;Min_cycle;Max_cycle;Signal;HPM_P1;HPM_P2
2023/05/26 00:00:23;;;;;;;7.15;3.38;;;;;;;;;;6276884;22;20011;-87
2023/05/26 00:02:50;;;;;;;3.67;3.10;;;;;;;;;;6276965;22;20077;-88
2023/05/26 00:05:20;;;;;;;4.55;3.50;;;;;;;;;;6277048;22;20303;-86
2023/05/26 00:07:46;;;;;;;5.75;3.25;;;;;;;;;;6277074;22;20019;-87
2023/05/26 00:10:12;;;;;;;8.27;3.40;;;;;;;;;;6276946;22;20087;-84
2023/05/26 00:12:38;;;;;;;6.35;3.40;;;;;;;;;;6277063;22;20439;-87
2023/05/26 00:15:05;;;;;;;8.35;3.67;;;;;;;;;;6276749;22;20008;-90
2023/05/26 00:17:31;;;;;;;6.63;3.58;;;;;;;;;;6277255;22;20007;-89
2023/05/26 00:19:59;;;;;;;5.40;3.65;;;;;;;;;;6276798;22;20012;-88
2023/05/26 00:22:26;;;;;;;9.88;3.35;;;;;;;;;;6277088;22;20058;-88
2023/05/26 00:24:53;;;;;;;5.70;3.78;;;;;;;;;;6277363;22;19999;-85
2023/05/26 00:27:19;;;;;;;6.03;3.60;;;;;;;;;;6278333;22;20003;-88
2023/05/26 00:29:45;;;;;;;8.73;3.78;;;;;;;;;;6278911;22;20007;-90
2023/05/26 00:32:11;;;;;;;4.25;3.60;;;;;;;;;;6279044;22;20003;-89
2023/05/26 00:34:37;;;;;;;5.47;3.88;;;;;;;;;;6278886;22;20089;-89
2023/05/26 00:37:03;;;;;;;6.93;4.10;;;;;;;;;;6278830;22;19999;-89
2023/05/26 00:39:30;;;;;;;8.70;3.95;;;;;;;;;;6278929;22;20000;-84
2023/05/26 00:41:56;;;;;;;6.93;3.97;;;;;;;;;;6278709;22;20414;-84
2023/05/26 00:44:22;;;;;;;10.50;3.60;;;;;;;;;;6278483;22;20000;-82
2023/05/26 00:46:49;;;;;;;5.97;3.70;;;;;;;;;;6278651;22;20278;-82
2023/05/26 00:49:15;;;;;;;4.40;3.58;;;;;;;;;;6278343;22;20380;-81
2023/05/26 00:51:42;;;;;;;7.28;3.72;;;;;;;;;;6278258;22;20000;-80
2023/05/26 00:54:09;;;;;;;7.43;3.33;;;;;;;;;;6278340;22;20004;-89
2023/05/26 00:56:35;;;;;;;5.90;3.85;;;;;;;;;;6278842;22;20000;-90
2023/05/26 00:59:03;;;;;;;5.22;4.07;;;;;;;;;;6277413;22;20010;-89
2023/05/26 01:01:29;;;;;;;7.85;3.97;;;;;;;;;;6277978;22;20000;-86
2023/05/26 01:03:56;;;;;;;7.32;3.38;;;;;;;;;;6278214;22;20444;-88
2023/05/26 01:06:22;;;;;;;7.65;3.97;;;;;;;;;;6302799;22;19999;-90
2023/05/26 01:08:48;;;;;;;6.75;4.13;;;;;;;;;;6278748;22;20422;-89
2023/05/26 01:11:20;;;;;;;5.05;3.55;;;;;;;;;;6303267;22;20004;-87
2023/05/26 01:13:53;;;;;;;5.97;3.90;;;;;;;;;;6278290;22;20004;-81
2023/05/26 01:16:22;;;;;;;6.68;3.55;;;;;;;;;;6278176;22;20068;-86
2023/05/26 01:18:54;;;;;;;6.60;4.18;;;;;;;;;;6277865;22;20039;-83
2023/05/26 01:21:21;;;;;;;;;;;;;;;;;;6278555;22;20008;-90
2023/05/26 01:24:05;;;;;;;5.03;3.58;;;;;;;;;;6278909;22;19899;-89
2023/05/26 01:26:43;;;;;;;7.03;3.55;;;;;;;;;;6278537;22;20004;-89
2023/05/26 01:29:14;;;;;;;6.47;3.95;;;;;;;;;;6277183;22;20418;-82
2023/05/26 01:31:41;;;;;;;9.30;3.80;;;;;;;;;;6277865;22;20072;-82
2023/05/26 01:34:07;;;;;;;5.90;3.90;;;;;;;;;;6278569;22;20073;-85
2023/05/26 01:36:35;;;;;;;11.73;4.70;;;;;;;;;;6277668;22;20075;-85
2023/05/26 01:39:02;;;;;;;6.90;4.40;;;;;;;;;;6302389;22;20058;-85
2023/05/26 01:41:48;;;;;;;10.32;4.20;;;;;;;;;;6277732;22;20003;-87
2023/05/26 01:44:21;;;;;;;7.32;3.78;;;;;;;;;;6261826;22;20422;-88
2023/05/26 01:46:51;;;;;;;14.02;4.18;;;;;;;;;;6303010;22;20099;-86
2023/05/26 01:49:20;;;;;;;7.82;4.28;;;;;;;;;;6302578;22;20486;-88
2023/05/26 01:51:51;;;;;;;10.43;4.13;;;;;;;;;;6278277;22;20006;-85
2023/05/26 01:54:18;;;;;;;10.35;4.07;;;;;;;;;;6278002;22;20023;-89
2023/05/26 01:56:47;;;;;;;6.78;3.83;;;;;;;;;;6277911;22;20000;-90
2023/05/26 01:59:14;;;;;;;6.80;3.97;;;;;;;;;;6278853;22;20036;-79
2023/05/26 02:01:40;;;;;;;6.32;3.80;;;;;;;;;;6277863;22;20058;-85
2023/05/26 02:04:09;;;;;;;5.90;4.15;;;;;;;;;;6278153;22;20000;-84
2023/05/26 02:06:36;;;;;;;9.50;4.20;;;;;;;;;;6277935;22;20004;-86
2023/05/26 02:09:02;;;;;;;5.43;4.00;;;;;;;;;;6302491;22;20075;-82
2023/05/26 02:11:28;;;;;;;6.53;3.90;;;;;;;;;;6302824;22;20338;-88
2023/05/26 02:13:54;;;;;;;5.53;4.22;;;;;;;;;;6277652;22;20000;-78
2023/05/26 02:16:21;;;;;;;5.53;4.05;;;;;;;;;;6277063;22;20380;-77
2023/05/26 02:18:48;;;;;;;9.25;4.47;;;;;;;;;;6277130;22;20067;-82
2023/05/26 02:21:14;;;;;;;6.15;3.70;;;;;;;;;;6277115;22;20042;-81
2023/05/26 02:23:40;;;;;;;6.68;4.07;;;;;;;;;;6301638;22;20439;-82
2023/05/26 02:26:06;;;;;;;6.68;3.92;;;;;;;;;;6277867;22;20003;-89
2023/05/26 02:28:32;;;;;;;4.40;3.60;;;;;;;;;;6302769;22;20008;-89
2023/05/26 02:30:58;;;;;;;6.88;4.00;;;;;;;;;;6276941;22;20422;-80
2023/05/26 02:33:25;;;;;;;7.05;3.95;;;;;;;;;;6276507;22;20035;-80
2023/05/26 02:35:52;;;;;;;6.25;4.03;;;;;;;;;;6276946;22;20065;-85
2023/05/26 02:38:18;;;;;;;7.18;4.38;;;;;;;;;;6277545;22;20329;-86
2023/05/26 02:40:44;;;;;;;5.38;3.70;;;;;;;;;;6277607;22;20325;-87
2023/05/26 02:43:10;;;;;;;7.00;4.45;;;;;;;;;;6277354;22;20038;-86
2023/05/26 02:45:36;;;;;;;6.47;4.10;;;;;;;;;;6301740;22;20014;-86
2023/05/26 02:48:02;;;;;;;5.10;4.03;;;;;;;;;;6277408;22;20000;-88
2023/05/26 02:50:28;;;;;;;6.22;3.72;;;;;;;;;;6277028;22;20007;-82
2023/05/26 02:52:54;;;;;;;6.68;4.10;;;;;;;;;;6277021;22;19996;-86
2023/05/26 02:55:21;;;;;;;5.70;4.10;;;;;;;;;;6276506;22;20007;-82
2023/05/26 02:57:47;;;;;;;6.28;3.88;;;;;;;;;;6276543;22;20430;-82
2023/05/26 03:00:14;;;;;;;6.72;4.18;;;;;;;;;;6276492;22;20053;-80
2023/05/26 03:02:40;;;;;;;7.00;4.13;;;;;;;;;;6276933;22;20053;-80
2023/05/26 03:05:06;;;;;;;7.72;3.90;;;;;;;;;;6300476;22;20003;-81
2023/05/26 03:07:32;;;;;;;5.65;3.83;;;;;;;;;;6276514;22;20469;-83
2023/05/26 03:09:58;;;;;;;8.75;4.80;;;;;;;;;;6276410;22;20066;-82
2023/05/26 03:12:24;;;;;;;7.85;3.97;;;;;;;;;;6276522;22;20437;-83
2023/05/26 03:14:51;;;;;;;5.53;3.88;;;;;;;;;;6276253;22;20034;-83
2023/05/26 03:17:17;;;;;;;6.65;4.13;;;;;;;;;;6276434;22;20099;-83
2023/05/26 03:19:44;;;;;;;6.85;3.88;;;;;;;;;;6276179;22;20019;-85
2023/05/26 03:22:11;;;;;;;6.78;4.00;;;;;;;;;;6276517;22;20003;-85
2023/05/26 03:24:37;;;;;;;4.30;3.90;;;;;;;;;;6276142;22;20000;-83
2023/05/26 03:27:03;;;;;;;4.82;4.00;;;;;;;;;;6276587;22;20003;-85
2023/05/26 03:29:30;;;;;;;10.95;4.03;;;;;;;;;;6276528;22;20027;-85
2023/05/26 03:31:56;;;;;;;4.80;4.15;;;;;;;;;;6276339;22;20000;-86
2023/05/26 03:34:24;;;;;;;5.40;3.83;;;;;;;;;;6276713;22;20014;-86
2023/05/26 03:36:52;;;;;;;5.65;4.40;;;;;;;;;;6277394;22;20019;-80
2023/05/26 03:39:18;;;;;;;8.32;3.88;;;;;;;;;;6276062;22;19995;-82
2023/05/26 03:41:44;;;;;;;7.78;4.13;;;;;;;;;;6276189;22;20068;-80
2023/05/26 03:44:10;;;;;;;5.53;4.32;;;;;;;;;;6276701;22;20002;-86
2023/05/26 03:46:36;;;;;;;7.65;4.68;;;;;;;;;;6276566;22;20000;-86
2023/05/26 03:49:03;;;;;;;6.38;4.32;;;;;;;;;;6276671;22;20008;-86
2023/05/26 03:51:30;;;;;;;7.50;4.63;;;;;;;;;;6276656;22;20000;-85
2023/05/26 03:53:56;;;;;;;4.70;4.00;;;;;;;;;;6277071;22;20007;-86
2023/05/26 03:56:22;;;;;;;9.65;4.22;;;;;;;;;;6276362;22;20445;-85
2023/05/26 03:58:48;;;;;;;7.68;4.45;;;;;;;;;;6276458;22;20039;-83
2023/05/26 04:01:16;;;;;;;7.57;4.75;;;;;;;;;;6275854;22;20525;-83
2023/05/26 04:03:42;;;;;;;6.75;4.20;;;;;;;;;;6275928;22;19999;-85
2023/05/26 04:06:08;;;;;;;7.20;4.50;;;;;;;;;;6276085;22;20004;-82
2023/05/26 04:08:34;;;;;;;9.13;4.57;;;;;;;;;;6276291;22;20000;-85
2023/05/26 04:11:00;;;;;;;6.72;4.10;;;;;;;;;;6276106;22;20010;-81
2023/05/26 04:13:27;;;;;;;6.72;4.70;;;;;;;;;;6275686;22;20410;-80
2023/05/26 04:15:53;;;;;;;6.47;4.50;;;;;;;;;;6275828;22;20008;-82
2023/05/26 04:18:19;;;;;;;5.07;4.55;;;;;;;;;;6275972;22;20011;-85
2023/05/26 04:20:47;;;;;;;9.55;4.65;;;;;;;;;;6276009;22;20012;-84
2023/05/26 04:23:13;;;;;;;7.35;4.38;;;;;;;;;;6275860;22;20007;-84
2023/05/26 04:25:40;;;;;;;8.75;4.53;;;;;;;;;;6276408;22;20073;-86
2023/05/26 04:28:07;;;;;;;8.73;4.85;;;;;;;;;;6276483;22;19996;-85
2023/05/26 04:30:38;;;;;;;7.00;4.32;;;;;;;;;;6276358;22;20654;-87
2023/05/26 04:33:05;;;;;;;11.40;4.85;;;;;;;;;;6276593;22;19996;-88
2023/05/26 04:35:33;;;;;;;8.02;5.00;;;;;;;;;;6300299;22;20098;-85
2023/05/26 04:37:59;;;;;;;6.75;4.32;;;;;;;;;;6276549;22;20052;-87
2023/05/26 04:40:25;;;;;;;10.95;4.78;;;;;;;;;;6276194;22;20054;-85
2023/05/26 04:42:51;;;;;;;6.20;4.65;;;;;;;;;;6276309;22;20492;-86
2023/05/26 04:45:18;;;;;;;8.18;4.72;;;;;;;;;;6276746;22;20007;-85
2023/05/26 04:47:44;;;;;;;10.73;4.53;;;;;;;;;;6276813;22;20000;-87
2023/05/26 04:50:16;;;;;;;8.48;4.32;;;;;;;;;;6275991;22;20004;-87
2023/05/26 04:52:42;;;;;;;5.40;4.78;;;;;;;;;;6276126;22;19992;-88
2023/05/26 04:55:09;;;;;;;6.60;5.07;;;;;;;;;;6275890;22;20063;-85
2023/05/26 04:57:35;;;;;;;5.82;4.72;;;;;;;;;;6275998;22;20003;-82
2023/05/26 05:00:06;;;;;;;8.43;4.75;;;;;;;;;;6275837;22;20027;-82
2023/05/26 05:02:32;;;;;;;8.15;4.75;;;;;;;;;;6276181;22;20422;-87
2023/05/26 05:04:58;;;;;;;8.48;4.78;;;;;;;;;;6275857;22;20004;-84
2023/05/26 05:07:24;;;;;;;8.27;4.60;;;;;;;;;;6300722;22;20330;-87
2023/05/26 05:09:50;;;;;;;10.95;4.60;;;;;;;;;;6300683;22;20082;-87
2023/05/26 05:12:16;;;;;;;8.13;4.63;;;;;;;;;;6300640;22;20025;-87
2023/05/26 05:14:42;;;;;;;10.48;5.35;;;;;;;;;;6277873;22;20007;-87
2023/05/26 05:17:08;;;;;;;7.25;4.72;;;;;;;;;;6278024;22;20000;-84
2023/05/26 05:19:34;;;;;;;7.47;4.75;;;;;;;;;;6277627;22;20453;-87
2023/05/26 05:22:01;;;;;;;7.70;4.57;;;;;;;;;;6277975;22;20003;-84
2023/05/26 05:24:27;;;;;;;5.38;4.60;;;;;;;;;;6277527;22;20330;-86
2023/05/26 05:26:53;;;;;;;7.63;4.40;;;;;;;;;;6302247;22;20093;-87
2023/05/26 05:29:19;;;;;;;5.38;4.25;;;;;;;;;;6278313;22;20007;-84
2023/05/26 05:31:45;;;;;;;6.95;4.45;;;;;;;;;;6277740;22;20027;-88
2023/05/26 05:34:11;;;;;;;7.75;4.60;;;;;;;;;;6277589;22;20430;-83
2023/05/26 05:36:37;;;;;;;6.18;4.38;;;;;;;;;;6277705;22;20991;-81
2023/05/26 05:39:04;;;;;;;8.07;5.00;;;;;;;;;;6277431;22;20020;-88
2023/05/26 05:41:30;;;;;;;24.63;5.00;;;;;;;;;;6278002;22;20011;-88
2023/05/26 05:43:59;;;;;;;7.47;4.72;;;;;;;;;;6278827;22;20049;-79
2023/05/26 05:46:25;;;;;;;7.30;4.85;;;;;;;;;;6277353;22;20418;-82
2023/05/26 05:48:51;;;;;;;6.53;4.82;;;;;;;;;;6278093;22;20011;-87
2023/05/26 05:51:17;;;;;;;8.27;4.57;;;;;;;;;;6277802;22;19995;-89
2023/05/26 05:53:44;;;;;;;7.28;4.22;;;;;;;;;;6277841;22;20006;-88
2023/05/26 05:56:10;;;;;;;9.32;5.32;;;;;;;;;;6277688;22;20035;-89
2023/05/26 05:58:36;;;;;;;7.00;4.63;;;;;;;;;;6277798;22;20491;-85
2023/05/26 06:01:02;;;;;;;8.30;4.13;;;;;;;;;;6277812;22;20338;-87
2023/05/26 06:03:28;;;;;;;8.65;4.25;;;;;;;;;;6302008;22;20011;-88
2023/05/26 06:05:54;;;;;;;6.85;4.18;;;;;;;;;;6278328;22;20007;-87
2023/05/26 06:08:20;;;;;;;7.40;4.50;;;;;;;;;;6278179;22;20027;-86
2023/05/26 06:10:47;;;;;;;6.82;4.47;;;;;;;;;;6277598;22;20386;-81
2023/05/26 06:13:13;;;;;;;9.15;4.53;;;;;;;;;;6277883;22;20007;-87
2023/05/26 06:15:39;;;;;;;5.35;4.55;;;;;;;;;;6277918;22;20062;-86
2023/05/26 06:18:05;;;;;;;6.18;3.97;;;;;;;;;;6277653;22;20080;-81
2023/05/26 06:20:31;;;;;;;7.35;4.05;;;;;;;;;;6275493;22;20091;-83
2023/05/26 06:22:57;;;;;;;14.30;4.68;;;;;;;;;;6276619;22;20432;-88
2023/05/26 06:25:23;;;;;;;9.95;4.03;;;;;;;;;;6276668;22;20442;-88
2023/05/26 06:27:49;;;;;;;9.90;4.63;;;;;;;;;;6277149;22;20406;-85
2023/05/26 06:30:15;;;;;;;11.00;4.20;;;;;;;;;;6276535;22;20049;-86
2023/05/26 06:32:41;;;;;;;12.85;4.95;;;;;;;;;;6277180;22;20006;-80
2023/05/26 06:35:08;;;;;;;10.60;4.07;;;;;;;;;;6300548;22;20043;-80
2023/05/26 06:37:34;;;;;;;7.75;4.13;;;;;;;;;;6276114;22;20011;-79
2023/05/26 06:40:00;;;;;;;16.15;4.95;;;;;;;;;;6276741;22;20683;-88
2023/05/26 06:42:26;;;;;;;8.90;4.40;;;;;;;;;;6276833;22;20010;-87
2023/05/26 06:44:52;;;;;;;11.73;4.18;;;;;;;;;;6277094;22;20004;-86
2023/05/26 06:47:23;;;;;;;6.68;4.22;;;;;;;;;;6277036;22;20053;-85
2023/05/26 06:49:49;;;;;;;13.07;4.75;;;;;;;;;;6258473;22;20386;-80
2023/05/26 06:52:15;;;;;;;11.23;4.88;;;;;;;;;;6215880;23;20001;-86
2023/05/26 06:54:41;;;;;;;11.85;4.68;;;;;;;;;;6215943;23;20007;-89
2023/05/26 06:57:07;;;;;;;9.65;4.43;;;;;;;;;;6214643;23;20009;-89
2023/05/26 06:59:33;;;;;;;8.25;4.40;;;;;;;;;;6216265;23;19996;-88
2023/05/26 07:01:59;;;;;;;12.13;4.15;;;;;;;;;;6216421;23;20487;-87
2023/05/26 07:04:26;;;;;;;7.43;4.40;;;;;;;;;;6215808;23;20000;-87
2023/05/26 07:06:52;;;;;;;5.20;3.88;;;;;;;;;;6215065;23;20000;-85
2023/05/26 07:09:18;;;;;;;8.50;4.20;;;;;;;;;;6215602;23;20001;-86
2023/05/26 07:11:44;;;;;;;6.63;4.70;;;;;;;;;;6215294;23;20005;-86
2023/05/26 07:14:10;;;;;;;6.50;4.07;;;;;;;;;;6215289;23;20008;-87
2023/05/26 07:16:36;;;;;;;8.38;4.50;;;;;;;;;;6215088;23;20104;-86
2023/05/26 07:19:02;;;;;;;7.95;4.43;;;;;;;;;;6218292;23;20009;-87
2023/05/26 07:21:29;;;;;;;7.82;4.05;;;;;;;;;;6245762;23;20050;-86
2023/05/26 07:23:55;;;;;;;7.10;4.35;;;;;;;;;;6245957;23;19996;-84
2023/05/26 07:26:21;;;;;;;9.60;4.53;;;;;;;;;;6245991;23;20426;-86
2023/05/26 07:28:48;;;;;;;8.57;4.60;;;;;;;;;;6245954;23;20047;-85
2023/05/26 07:31:14;;;;;;;8.88;4.60;;;;;;;;;;6245507;23;20075;-86
2023/05/26 07:33:40;;;;;;;10.05;4.68;;;;;;;;;;6245970;23;20008;-85
2023/05/26 07:36:06;;;;;;;8.90;4.38;;;;;;;;;;6245694;23;20023;-84
2023/05/26 07:38:32;;;;;;;8.02;4.75;;;;;;;;;;6245966;23;20040;-86
2023/05/26 07:40:59;;;;;;;7.50;5.10;;;;;;;;;;6245798;23;20143;-85
2023/05/26 07:43:25;;;;;;;7.28;4.25;;;;;;;;;;6218921;23;20342;-85
2023/05/26 07:45:51;;;;;;;7.78;4.47;;;;;;;;;;6246171;22;20012;-75
2023/05/26 07:48:17;;;;;;;11.05;4.72;;;;;;;;;;6245724;23;20004;-76
2023/05/26 07:50:43;;;;;;;5.90;4.28;;;;;;;;;;6245744;23;20429;-76
2023/05/26 07:53:09;;;;;;;9.35;4.00;;;;;;;;;;6245571;23;20499;-76
2023/05/26 07:55:35;;;;;;;6.78;4.13;;;;;;;;;;6245244;23;20009;-77
2023/05/26 07:58:01;;;;;;;7.43;4.03;;;;;;;;;;6245436;23;20461;-76
2023/05/26 08:00:27;;;;;;;6.47;4.20;;;;;;;;;;6245458;23;20004;-77
2023/05/26 08:02:54;;;;;;;6.07;4.20;;;;;;;;;;6245186;23;20501;-76
2023/05/26 08:05:20;;;;;;;8.10;4.45;;;;;;;;;;6245518;22;20000;-76
2023/05/26 08:07:46;;;;;;;6.18;4.28;;;;;;;;;;6245299;23;20000;-77
2023/05/26 08:10:12;;;;;;;6.03;4.00;;;;;;;;;;6245384;23;20011;-76
2023/05/26 08:12:38;;;;;;;7.55;4.30;;;;;;;;;;6244282;23;20071;-75
2023/05/26 08:15:04;;;;;;;5.53;4.65;;;;;;;;;;6244815;23;20069;-76
2023/05/26 08:17:31;;;;;;;9.80;4.47;;;;;;;;;;6245415;23;20007;-75
2023/05/26 08:19:57;;;;;;;8.52;4.25;;;;;;;;;;6245805;23;20007;-76
2023/05/26 08:22:23;;;;;;;7.70;4.18;;;;;;;;;;6245299;23;20008;-75
2023/05/26 08:24:49;;;;;;;5.10;3.65;;;;;;;;;;6245880;23;20450;-77
2023/05/26 08:27:15;;;;;;;8.05;4.28;;;;;;;;;;6245927;22;20294;-76
2023/05/26 08:29:42;;;;;;;7.32;4.00;;;;;;;;;;6246393;23;20326;-77
2023/05/26 08:32:08;;;;;;;9.13;4.28;;;;;;;;;;6245991;23;20323;-76
2023/05/26 08:34:34;;;;;;;5.85;4.07;;;;;;;;;;6243968;23;20010;-77
2023/05/26 08:40:04;;;;;;;6.32;4.07;;;;;;;;;;6245156;23;20018;-76
2023/05/26 08:42:48;;;;;;;6.95;4.28;;;;;;;;;;6245643;22;20008;-77
2023/05/26 08:45:18;;;;;;;9.13;4.20;;;;;;;;;;6245456;23;20012;-76
2023/05/26 08:47:48;;;;;;;6.80;4.50;;;;;;;;;;6246208;23;20311;-76
2023/05/26 08:50:17;;;;;;;6.28;4.00;;;;;;;;;;6246160;23;20138;-77
2023/05/26 08:55:33;;;;;;;6.50;4.13;;;;;;;;;;6183993;23;20492;-77
2023/05/26 08:58:37;;;;;;;6.60;4.15;;;;;;;;;;6184750;23;20016;-76
2023/05/26 09:04:14;;;;;;;8.88;4.28;;;;;;;;;;6176975;23;20463;-76
2023/05/26 09:06:45;;;;;;;10.07;4.13;;;;;;;;;;6214182;23;20333;-76
2023/05/26 09:09:13;;;;;;;8.30;4.50;;;;;;;;;;6247465;23;20342;-76
2023/05/26 09:11:43;;;;;;;9.38;4.30;;;;;;;;;;6247726;22;20000;-76
2023/05/26 09:14:13;;;;;;;7.05;3.70;;;;;;;;;;6247336;22;20032;-76
2023/05/26 09:16:39;;;;;;;5.03;3.65;;;;;;;;;;6247361;23;20008;-77
2023/05/26 09:19:06;;;;;;;6.30;4.10;;;;;;;;;;6247730;23;20011;-76
2023/05/26 09:21:32;;;;;;;6.78;4.47;;;;;;;;;;6247369;23;20319;-76
2023/05/26 09:24:01;;;;;;;7.13;4.03;;;;;;;;;;6246907;23;20007;-78
2023/05/26 09:26:27;;;;;;;8.02;4.38;;;;;;;;;;6247129;22;20430;-75
2023/05/26 09:28:53;;;;;;;8.57;4.22;;;;;;;;;;6247061;23;20037;-77
2023/05/26 09:31:19;;;;;;;9.18;4.20;;;;;;;;;;6246875;23;20011;-76
2023/05/26 09:33:46;;;;;;;4.55;3.60;;;;;;;;;;6247089;23;20028;-75
2023/05/26 09:36:13;;;;;;;5.70;4.15;;;;;;;;;;6247337;22;20008;-75
2023/05/26 09:38:41;;;;;;;9.15;4.00;;;;;;;;;;6246849;23;19996;-76
2023/05/26 09:41:07;;;;;;;5.95;3.83;;;;;;;;;;6247345;23;20011;-77
2023/05/26 09:43:34;;;;;;;6.53;4.03;;;;;;;;;;6247532;23;20430;-75
2023/05/26 09:46:01;;;;;;;10.45;3.90;;;;;;;;;;6246870;22;20012;-77
2023/05/26 09:48:27;;;;;;;7.30;5.07;;;;;;;;;;6247311;22;20035;-75
2023/05/26 09:50:53;;;;;;;5.50;4.57;;;;;;;;;;6247459;23;20031;-75
2023/05/26 09:53:19;;;;;;;13.95;10.88;;;;;;;;;;6247463;23;20098;-75
2023/05/26 09:55:46;;;;;;;8.25;5.40;;;;;;;;;;6246559;23;20005;-75
2023/05/26 09:58:13;;;;;;;9.15;3.80;;;;;;;;;;6246807;23;19997;-76
2023/05/26 10:00:40;;;;;;;6.93;3.88;;;;;;;;;;6246852;23;20011;-76
2023/05/26 10:03:07;;;;;;;14.18;7.20;;;;;;;;;;6245484;23;20483;-76
2023/05/26 10:05:34;;;;;;;5.80;3.90;;;;;;;;;;6247394;23;20006;-76
2023/05/26 10:08:01;;;;;;;6.93;4.10;;;;;;;;;;6247510;23;19996;-77
2023/05/26 10:10:30;;;;;;;6.32;4.13;;;;;;;;;;6246998;23;20000;-77
2023/05/26 10:13:01;;;;;;;8.70;3.92;;;;;;;;;;6245889;23;20004;-76
2023/05/26 10:15:31;;;;;;;;;;;;;;;;;;6246263;23;20012;-75
2023/05/26 10:18:01;;;;;;;9.50;3.90;;;;;;;;;;6246879;23;19900;-76
2023/05/26 10:20:27;;;;;;;8.70;3.92;;;;;;;;;;6246978;22;20413;-76
2023/05/26 10:23:01;;;;;;;7.60;4.15;;;;;;;;;;6246329;23;20003;-76
2023/05/26 10:25:51;;;;;;;5.60;3.85;;;;;;;;;;6246244;22;20334;-76
2023/05/26 10:31:56;;;;;;;7.88;3.55;;;;;;;;;;6183637;23;20059;-77
2023/05/26 10:34:45;;;;;;;4.85;3.50;;;;;;;;;;6183706;23;20342;-76
2023/05/26 10:37:14;;;;;;;9.98;3.90;;;;;;;;;;6183429;23;20001;-77
2023/05/26 10:39:46;;;;;;;9.48;3.67;;;;;;;;;;6183138;23;20358;-76
2023/05/26 10:42:19;;;;;;;8.38;3.58;;;;;;;;;;6219509;23;20001;-77
2023/05/26 10:44:46;;;;;;;9.50;4.10;;;;;;;;;;6246479;22;20027;-74
2023/05/26 10:47:16;;;;;;;6.90;3.92;;;;;;;;;;6245533;23;20016;-73
2023/05/26 10:49:51;;;;;;;4.65;3.58;;;;;;;;;;6246123;23;20422;-73
2023/05/26 10:52:18;;;;;;;5.88;3.78;;;;;;;;;;6246329;23;20318;-73
2023/05/26 10:54:47;;;;;;;7.22;3.95;;;;;;;;;;6245791;23;20004;-74
2023/05/26 10:57:32;;;;;;;5.15;3.90;;;;;;;;;;6246180;22;20015;-73
2023/05/26 10:59:59;;;;;;;4.72;3.63;;;;;;;;;;6246465;23;20054;-73
2023/05/26 11:02:25;;;;;;;13.15;4.03;;;;;;;;;;6246238;22;20062;-73
2023/05/26 11:04:51;;;;;;;6.40;3.83;;;;;;;;;;6245386;22;20014;-73
2023/05/26 11:07:27;;;;;;;9.98;3.58;;;;;;;;;;6245393;23;20419;-73
2023/05/26 11:09:56;;;;;;;8.05;3.67;;;;;;;;;;6245161;23;20000;-74
2023/05/26 11:12:22;;;;;;;6.68;3.50;;;;;;;;;;6245853;23;20426;-73
2023/05/26 11:14:49;;;;;;;8.63;3.70;;;;;;;;;;6241949;23;20038;-73
2023/05/26 11:17:19;;;;;;;9.15;3.75;;;;;;;;;;6240721;23;20517;-74
2023/05/26 11:19:54;;;;;;;5.47;3.70;;;;;;;;;;6245892;22;20007;-73
2023/05/26 11:22:21;;;;;;;5.60;4.00;;;;;;;;;;6246017;22;20432;-73
2023/05/26 11:24:52;;;;;;;10.77;4.03;;;;;;;;;;6245659;22;20007;-74
2023/05/26 11:27:18;;;;;;;6.57;4.32;;;;;;;;;;6245786;22;20012;-74
2023/05/26 11:29:48;;;;;;;5.63;3.70;;;;;;;;;;6246151;23;20421;-74
2023/05/26 11:32:14;;;;;;;5.28;3.63;;;;;;;;;;6244495;23;20004;-74
2023/05/26 11:34:40;;;;;;;6.63;3.60;;;;;;;;;;6245924;23;20001;-74
2023/05/26 11:37:08;;;;;;;6.20;3.80;;;;;;;;;;6245883;22;20004;-74
2023/05/26 11:39:35;;;;;;;6.95;4.13;;;;;;;;;;6242344;22;20004;-73
2023/05/26 11:42:10;;;;;;;5.80;3.92;;;;;;;;;;6242471;22;20091;-75
2023/05/26 11:44:37;;;;;;;6.78;3.92;;;;;;;;;;6243439;23;20050;-74
2023/05/26 11:47:04;;;;;;;5.28;4.20;;;;;;;;;;6245482;23;20065;-74
2023/05/26 11:49:31;;;;;;;7.70;3.78;;;;;;;;;;6246173;23;20011;-73
2023/05/26 11:51:57;;;;;;;6.97;3.80;;;;;;;;;;6246198;22;20000;-72
2023/05/26 11:54:23;;;;;;;7.90;3.90;;;;;;;;;;6245887;23;20058;-73
2023/05/26 11:56:58;;;;;;;5.28;3.67;;;;;;;;;;6245518;23;20338;-73
2023/05/26 12:02:55;;;;;;;6.38;3.50;;;;;;;;;;6245498;23;20030;-76
2023/05/26 12:05:46;;;;;;;6.55;4.07;;;;;;;;;;6243073;23;20095;-75
2023/05/26 12:12:13;;;;;;;5.55;3.58;;;;;;;;;;6182710;23;20009;-76
2023/05/26 12:15:11;;;;;;;6.78;3.78;;;;;;;;;;6172976;23;20140;-76
2023/05/26 12:20:32;;;;;;;11.63;4.30;;;;;;;;;;6061810;23;20465;-77
2023/05/26 12:23:02;;;;;;;8.60;4.28;;;;;;;;;;6206742;23;20062;-76
2023/05/26 12:25:29;;;;;;;11.73;4.60;;;;;;;;;;6246455;22;20011;-76
2023/05/26 12:27:56;;;;;;;11.57;4.72;;;;;;;;;;6245011;23;20062;-76
2023/05/26 12:30:24;;;;;;;9.43;3.67;;;;;;;;;;6246243;23;20334;-74
2023/05/26 12:32:50;;;;;;;4.53;3.90;;;;;;;;;;6245113;23;20359;-76
2023/05/26 12:35:16;;;;;;;8.75;4.22;;;;;;;;;;6246792;22;20015;-76
2023/05/26 12:37:43;;;;;;;5.50;4.10;;;;;;;;;;6246133;23;20430;-77
2023/05/26 12:40:09;;;;;;;8.43;4.50;;;;;;;;;;6246962;23;20028;-76
2023/05/26 12:42:36;;;;;;;6.68;4.10;;;;;;;;;;6244722;23;20472;-76
2023/05/26 12:45:02;;;;;;;5.90;3.92;;;;;;;;;;6243815;23;20502;-76
2023/05/26 12:47:29;;;;;;;11.32;4.63;;;;;;;;;;6243826;23;20336;-76
2023/05/26 12:49:55;;;;;;;6.70;4.03;;;;;;;;;;6246262;22;20459;-76
2023/05/26 12:52:22;;;;;;;8.57;4.30;;;;;;;;;;6247121;23;20008;-76
2023/05/26 12:54:48;;;;;;;6.53;4.28;;;;;;;;;;6247382;22;20414;-76
2023/05/26 12:57:14;;;;;;;5.75;4.00;;;;;;;;;;6247239;23;20005;-76
2023/05/26 12:59:41;;;;;;;8.10;4.78;;;;;;;;;;6247033;23;20000;-76
2023/05/26 13:02:11;;;;;;;4.13;3.60;;;;;;;;;;6247569;22;20004;-76
2023/05/26 13:04:37;;;;;;;5.28;4.00;;;;;;;;;;6247180;23;20000;-76
2023/05/26 13:07:03;;;;;;;8.23;4.53;;;;;;;;;;6247184;23;20031;-76
2023/05/26 13:09:30;;;;;;;5.90;4.15;;;;;;;;;;6246950;23;20353;-76
2023/05/26 13:11:57;;;;;;;8.35;4.40;;;;;;;;;;6247060;22;20031;-76
2023/05/26 13:14:24;;;;;;;7.10;4.45;;;;;;;;;;6246915;22;20058;-75
2023/05/26 13:16:50;;;;;;;6.85;5.05;;;;;;;;;;6247093;22;20012;-76
2023/05/26 13:19:19;;;;;;;5.97;4.68;;;;;;;;;;6246653;23;20000;-76
2023/05/26 13:21:45;;;;;;;7.93;4.28;;;;;;;;;;6247343;23;20004;-76
2023/05/26 13:24:11;;;;;;;10.30;4.50;;;;;;;;;;6247802;23;20057;-76
2023/05/26 13:26:37;;;;;;;5.70;4.43;;;;;;;;;;6247827;23;20007;-75
2023/05/26 13:29:04;;;;;;;7.72;4.10;;;;;;;;;;6247844;23;20000;-76
2023/05/26 13:31:35;;;;;;;5.85;4.30;;;;;;;;;;6247406;23;20022;-75
2023/05/26 13:34:31;;;;;;;6.85;4.35;;;;;;;;;;6246177;23;20020;-74
2023/05/26 13:46:46;;;;;;;6.28;3.88;;;;;;;;;;6177914;23;20027;-75
2023/05/26 13:52:22;;;;;;;4.25;3.83;;;;;;;;;;6130586;23;20100;-75
2023/05/26 13:58:02;;;;;;;10.60;4.40;;;;;;;;;;6124169;23;20013;-75
2023/05/26 14:00:49;;;;;;;6.82;4.00;;;;;;;;;;6124351;23;20413;-75
2023/05/26 14:03:15;;;;;;;5.32;3.90;;;;;;;;;;6237954;22;20384;-75
2023/05/26 14:05:42;;;;;;;6.85;4.10;;;;;;;;;;6244344;23;20391;-75
2023/05/26 14:08:08;;;;;;;6.18;3.97;;;;;;;;;;6245969;23;20120;-76
2023/05/26 14:10:34;;;;;;;6.13;3.50;;;;;;;;;;6245721;23;20372;-76
2023/05/26 14:13:00;;;;;;;5.90;3.88;;;;;;;;;;6246074;23;20059;-76
2023/05/26 14:15:28;;;;;;;7.07;5.03;;;;;;;;;;6246044;23;20334;-75
2023/05/26 14:17:54;;;;;;;8.63;4.03;;;;;;;;;;6246668;22;20027;-75
2023/05/26 14:20:21;;;;;;;8.85;4.35;;;;;;;;;;6246251;23;20003;-74
2023/05/26 14:22:48;;;;;;;9.45;4.40;;;;;;;;;;6246177;23;20427;-76
2023/05/26 14:25:15;;;;;;;5.78;4.20;;;;;;;;;;6245445;22;20457;-75
2023/05/26 14:27:41;;;;;;;8.30;3.72;;;;;;;;;;6246677;22;20445;-75
2023/05/26 14:30:10;;;;;;;8.70;4.10;;;;;;;;;;6246067;23;20473;-75
2023/05/26 14:32:36;;;;;;;9.30;4.25;;;;;;;;;;6246789;22;20007;-75
2023/05/26 14:35:02;;;;;;;7.15;3.58;;;;;;;;;;6246282;23;20086;-76
2023/05/26 14:37:29;;;;;;;9.18;4.32;;;;;;;;;;6244895;23;20059;-75
2023/05/26 14:39:56;;;;;;;7.10;3.67;;;;;;;;;;6246375;22;20374;-75
2023/05/26 14:42:22;;;;;;;7.03;4.03;;;;;;;;;;6244824;23;20008;-75
2023/05/26 14:44:48;;;;;;;5.07;3.90;;;;;;;;;;6245263;23;20453;-75
2023/05/26 14:47:14;;;;;;;4.43;3.72;;;;;;;;;;6245997;23;20012;-76
2023/05/26 14:49:40;;;;;;;4.65;3.92;;;;;;;;;;6246007;22;20007;-76
2023/05/26 14:52:07;;;;;;;10.80;4.22;;;;;;;;;;6246299;23;20437;-76
2023/05/26 14:54:33;;;;;;;4.93;3.90;;;;;;;;;;6244614;23;20008;-76
2023/05/26 14:57:00;;;;;;;6.25;3.85;;;;;;;;;;6246241;23;20035;-76
2023/05/26 14:59:26;;;;;;;6.22;4.07;;;;;;;;;;6245778;22;20000;-75
2023/05/26 15:01:53;;;;;;;7.03;4.20;;;;;;;;;;6246555;23;20384;-75
2023/05/26 15:04:20;;;;;;;6.60;3.72;;;;;;;;;;6246896;22;20131;-75
2023/05/26 15:06:47;;;;;;;4.82;3.45;;;;;;;;;;6246931;22;20000;-74
2023/05/26 15:09:16;;;;;;;6.22;3.75;;;;;;;;;;6246537;23;20063;-74
2023/05/26 15:12:23;;;;;;;;;;;;;;;;;;;;;
2023/05/26 15:20:51;;;;;;;5.55;3.55;;;;;;;;;;6246205;23;20440;-75
2023/05/26 15:26:48;;;;;;;6.13;3.60;;;;;;;;;;6246278;23;20015;-76
2023/05/26 15:29:30;;;;;;;4.97;4.00;;;;;;;;;;6245414;23;20367;-75
2023/05/26 15:32:20;;;;;;;8.43;3.75;;;;;;;;;;6243551;23;20011;-76
2023/05/26 15:35:10;;;;;;;6.43;3.70;;;;;;;;;;6245008;23;20007;-75